N11 EFOU-EFTP
Flight info
| Callsign | N11 |
|---|---|
| Flight time | 1h 10m |
| Altitude | 20000 |
| Route | MIKNU Y86 BEPEM DCT ARBEV |
| Aircraft | C295/M-SDFGHIRY/S |
Departure
| Time | 2026-05-04 17:44 |
|---|---|
| Airport | Oulu Airport (EFOU) |
Arrival
| Time | 2026-05-04 18:55 |
|---|---|
| Airport | Tampere-Pirkkala Airport (EFTP) |
| Time | Latitude | Longitude | Altitude | Speed | Heading |
|---|---|---|---|---|---|
| 2026-05-04 17:32 | 64.93195 | 25.33707 | 40 ft | 0 kts | 282° |
| 2026-05-04 17:36 | 64.93197 | 25.33693 | 41 ft | 5 kts | 291° |
| 2026-05-04 17:36 | 64.93211 | 25.33669 | 40 ft | 3 kts | 341° |
| 2026-05-04 17:36 | 64.93248 | 25.33702 | 40 ft | 10 kts | 38° |
| 2026-05-04 17:37 | 64.93296 | 25.33792 | 41 ft | 10 kts | 38° |
| 2026-05-04 17:37 | 64.93364 | 25.33904 | 45 ft | 7 kts | 30° |
| 2026-05-04 17:37 | 64.93447 | 25.34026 | 43 ft | 17 kts | 29° |
| 2026-05-04 17:37 | 64.93521 | 25.34177 | 41 ft | 13 kts | 80° |
| 2026-05-04 17:38 | 64.93472 | 25.34422 | 41 ft | 23 kts | 121° |
| 2026-05-04 17:38 | 64.93390 | 25.34740 | 40 ft | 22 kts | 121° |
| 2026-05-04 17:38 | 64.93317 | 25.35030 | 40 ft | 20 kts | 121° |
| 2026-05-04 17:38 | 64.93248 | 25.35304 | 41 ft | 19 kts | 121° |
| 2026-05-04 17:39 | 64.93116 | 25.35821 | 40 ft | 18 kts | 120° |
| 2026-05-04 17:39 | 64.93051 | 25.36071 | 40 ft | 18 kts | 121° |
| 2026-05-04 17:39 | 64.92987 | 25.36321 | 40 ft | 18 kts | 121° |
| 2026-05-04 17:40 | 64.92923 | 25.36571 | 40 ft | 18 kts | 121° |
| 2026-05-04 17:40 | 64.92860 | 25.36822 | 40 ft | 18 kts | 121° |
| 2026-05-04 17:40 | 64.92796 | 25.37073 | 40 ft | 18 kts | 121° |
| 2026-05-04 17:40 | 64.92731 | 25.37326 | 40 ft | 18 kts | 120° |
| 2026-05-04 17:41 | 64.92667 | 25.37582 | 40 ft | 18 kts | 121° |
| 2026-05-04 17:41 | 64.92620 | 25.37763 | 40 ft | 11 kts | 122° |
| 2026-05-04 17:41 | 64.92573 | 25.37919 | 40 ft | 10 kts | 139° |
| 2026-05-04 17:41 | 64.92508 | 25.37921 | 40 ft | 8 kts | 219° |
| 2026-05-04 17:42 | 64.92491 | 25.37866 | 40 ft | 6 kts | 239° |
| 2026-05-04 17:42 | 64.92475 | 25.37761 | 38 ft | 8 kts | 260° |
| 2026-05-04 17:42 | 64.92469 | 25.37657 | 39 ft | 5 kts | 269° |
| 2026-05-04 17:42 | 64.92471 | 25.37600 | 40 ft | 2 kts | 278° |
| 2026-05-04 17:43 | 64.92472 | 25.37590 | 40 ft | 0 kts | 290° |
| 2026-05-04 17:43 | 64.92499 | 25.37476 | 41 ft | 35 kts | 300° |
| 2026-05-04 17:44 | 64.92760 | 25.36456 | 51 ft | 105 kts | 301° |
| 2026-05-04 17:44 | 64.93132 | 25.34848 | 521 ft | 115 kts | 301° |
| 2026-05-04 17:44 | 64.93567 | 25.33230 | 1219 ft | 118 kts | 303° |
| 2026-05-04 17:44 | 64.94053 | 25.31390 | 1614 ft | 146 kts | 300° |
| 2026-05-04 17:45 | 64.94600 | 25.29203 | 2107 ft | 159 kts | 297° |
| 2026-05-04 17:45 | 64.95154 | 25.26958 | 2790 ft | 161 kts | 296° |
| 2026-05-04 17:45 | 64.95727 | 25.24663 | 3450 ft | 163 kts | 295° |
| 2026-05-04 17:45 | 64.95974 | 25.22169 | 3943 ft | 156 kts | 250° |
| 2026-05-04 17:46 | 64.95340 | 25.20196 | 4323 ft | 153 kts | 221° |
| 2026-05-04 17:46 | 64.94519 | 25.18562 | 4756 ft | 155 kts | 217° |
| 2026-05-04 17:46 | 64.93632 | 25.17111 | 5198 ft | 155 kts | 212° |
| 2026-05-04 17:46 | 64.93023 | 25.16224 | 5492 ft | 156 kts | 210° |
| 2026-05-04 17:47 | 64.91778 | 25.14516 | 6065 ft | 157 kts | 210° |
| 2026-05-04 17:47 | 64.90830 | 25.13218 | 6475 ft | 158 kts | 210° |
| 2026-05-04 17:47 | 64.90188 | 25.12335 | 6752 ft | 158 kts | 210° |
| 2026-05-04 17:47 | 64.89197 | 25.11276 | 7150 ft | 161 kts | 186° |
| 2026-05-04 17:48 | 64.88100 | 25.11917 | 7477 ft | 166 kts | 164° |
| 2026-05-04 17:48 | 64.87006 | 25.12856 | 7858 ft | 168 kts | 165° |
| 2026-05-04 17:48 | 64.85898 | 25.13799 | 8262 ft | 170 kts | 165° |
| 2026-05-04 17:48 | 64.84778 | 25.14734 | 8653 ft | 171 kts | 165° |
| 2026-05-04 17:49 | 64.83643 | 25.15634 | 9037 ft | 173 kts | 167° |
| 2026-05-04 17:49 | 64.82495 | 25.16493 | 9438 ft | 173 kts | 167° |
| 2026-05-04 17:49 | 64.81359 | 25.17330 | 9837 ft | 170 kts | 167° |
| 2026-05-04 17:49 | 64.80241 | 25.18158 | 10188 ft | 171 kts | 167° |
| 2026-05-04 17:50 | 64.79100 | 25.18992 | 10532 ft | 172 kts | 168° |
| 2026-05-04 17:50 | 64.77950 | 25.19835 | 10883 ft | 174 kts | 168° |
| 2026-05-04 17:50 | 64.76789 | 25.20683 | 11214 ft | 175 kts | 168° |
| 2026-05-04 17:50 | 64.75618 | 25.21526 | 11555 ft | 177 kts | 168° |
| 2026-05-04 17:51 | 64.74435 | 25.22379 | 11851 ft | 180 kts | 170° |
| 2026-05-04 17:51 | 64.73234 | 25.23240 | 12183 ft | 181 kts | 170° |
| 2026-05-04 17:51 | 64.72024 | 25.24108 | 12522 ft | 182 kts | 170° |
| 2026-05-04 17:51 | 64.70807 | 25.24983 | 12856 ft | 184 kts | 171° |
| 2026-05-04 17:52 | 64.69581 | 25.25867 | 13179 ft | 185 kts | 171° |
| 2026-05-04 17:52 | 64.68345 | 25.26755 | 13489 ft | 186 kts | 171° |
| 2026-05-04 17:52 | 64.67130 | 25.27630 | 13789 ft | 185 kts | 171° |
| 2026-05-04 17:52 | 64.65893 | 25.28520 | 14096 ft | 185 kts | 171° |
| 2026-05-04 17:53 | 64.64663 | 25.29405 | 14398 ft | 185 kts | 171° |
| 2026-05-04 17:53 | 64.63433 | 25.30291 | 14692 ft | 185 kts | 172° |
| 2026-05-04 17:53 | 64.62204 | 25.31177 | 14992 ft | 185 kts | 172° |
| 2026-05-04 17:53 | 64.60975 | 25.32060 | 15276 ft | 184 kts | 172° |
| 2026-05-04 17:54 | 64.59751 | 25.32938 | 15552 ft | 184 kts | 172° |
| 2026-05-04 17:54 | 64.58524 | 25.33817 | 15827 ft | 184 kts | 172° |
| 2026-05-04 17:54 | 64.57290 | 25.34699 | 16092 ft | 184 kts | 173° |
| 2026-05-04 17:54 | 64.56079 | 25.35567 | 16346 ft | 184 kts | 173° |
| 2026-05-04 17:55 | 64.54855 | 25.36446 | 16600 ft | 184 kts | 173° |
| 2026-05-04 17:55 | 64.53627 | 25.37329 | 16795 ft | 187 kts | 173° |
| 2026-05-04 17:55 | 64.52345 | 25.38226 | 16804 ft | 197 kts | 173° |
| 2026-05-04 17:55 | 64.50997 | 25.39132 | 16822 ft | 206 kts | 173° |
| 2026-05-04 17:56 | 64.49600 | 25.40060 | 16906 ft | 210 kts | 173° |
| 2026-05-04 17:56 | 64.48199 | 25.41033 | 17065 ft | 210 kts | 172° |
| 2026-05-04 17:56 | 64.46796 | 25.42022 | 17230 ft | 210 kts | 172° |
| 2026-05-04 17:56 | 64.45396 | 25.43010 | 17382 ft | 210 kts | 172° |
| 2026-05-04 17:57 | 64.44010 | 25.43830 | 17501 ft | 204 kts | 182° |
| 2026-05-04 17:57 | 64.42602 | 25.43923 | 17669 ft | 201 kts | 189° |
| 2026-05-04 17:57 | 64.41204 | 25.43778 | 17822 ft | 200 kts | 190° |
| 2026-05-04 17:57 | 64.39812 | 25.43601 | 17955 ft | 200 kts | 190° |
| 2026-05-04 17:58 | 64.38442 | 25.43442 | 18075 ft | 200 kts | 189° |
| 2026-05-04 17:58 | 64.37049 | 25.43336 | 18198 ft | 200 kts | 189° |
| 2026-05-04 17:58 | 64.35658 | 25.43257 | 18322 ft | 199 kts | 189° |
| 2026-05-04 17:58 | 64.34271 | 25.43180 | 18437 ft | 199 kts | 189° |
| 2026-05-04 17:59 | 64.32881 | 25.43105 | 18546 ft | 199 kts | 189° |
| 2026-05-04 17:59 | 64.31495 | 25.43031 | 18652 ft | 199 kts | 189° |
| 2026-05-04 17:59 | 64.28898 | 25.42967 | 19305 ft | 178 kts | 190° |
| 2026-05-04 18:00 | 64.27651 | 25.42961 | 19432 ft | 180 kts | 191° |
| 2026-05-04 18:00 | 64.26382 | 25.42910 | 19491 ft | 184 kts | 191° |
| 2026-05-04 18:00 | 64.25083 | 25.42840 | 19519 ft | 189 kts | 191° |
| 2026-05-04 18:00 | 64.23749 | 25.42760 | 19531 ft | 194 kts | 191° |
| 2026-05-04 18:01 | 64.22402 | 25.42665 | 19539 ft | 198 kts | 191° |
| 2026-05-04 18:01 | 64.21010 | 25.42545 | 19540 ft | 201 kts | 192° |
| 2026-05-04 18:01 | 64.19596 | 25.42426 | 19545 ft | 205 kts | 191° |
| 2026-05-04 18:02 | 64.16709 | 25.42247 | 19543 ft | 210 kts | 190° |
| 2026-05-04 18:02 | 64.15243 | 25.42165 | 19547 ft | 212 kts | 190° |
| 2026-05-04 18:02 | 64.13767 | 25.42083 | 19538 ft | 213 kts | 190° |
| 2026-05-04 18:02 | 64.12282 | 25.42002 | 19539 ft | 214 kts | 190° |
| 2026-05-04 18:03 | 64.10790 | 25.41922 | 19534 ft | 215 kts | 190° |
| 2026-05-04 18:03 | 64.09294 | 25.41843 | 19536 ft | 216 kts | 190° |
| 2026-05-04 18:03 | 64.07767 | 25.41758 | 19536 ft | 222 kts | 190° |
| 2026-05-04 18:03 | 64.06209 | 25.41671 | 19536 ft | 226 kts | 190° |
| 2026-05-04 18:04 | 64.04645 | 25.41586 | 19536 ft | 229 kts | 190° |
| 2026-05-04 18:04 | 64.03044 | 25.41499 | 19537 ft | 231 kts | 189° |
| 2026-05-04 18:04 | 63.99807 | 25.41326 | 19540 ft | 233 kts | 190° |
| 2026-05-04 18:05 | 63.98182 | 25.41244 | 19539 ft | 231 kts | 190° |
| 2026-05-04 18:05 | 63.96584 | 25.41166 | 19542 ft | 228 kts | 190° |
| 2026-05-04 18:05 | 63.95005 | 25.41084 | 19539 ft | 226 kts | 190° |
| 2026-05-04 18:05 | 63.93444 | 25.41001 | 19541 ft | 224 kts | 190° |
| 2026-05-04 18:06 | 63.90356 | 25.40834 | 19543 ft | 220 kts | 191° |
| 2026-05-04 18:06 | 63.88823 | 25.40752 | 19555 ft | 219 kts | 191° |
| 2026-05-04 18:06 | 63.87299 | 25.40674 | 19553 ft | 219 kts | 191° |
| 2026-05-04 18:07 | 63.85796 | 25.40594 | 19552 ft | 218 kts | 191° |
| 2026-05-04 18:07 | 63.84279 | 25.40519 | 19537 ft | 218 kts | 191° |
| 2026-05-04 18:07 | 63.82766 | 25.40452 | 19537 ft | 217 kts | 191° |
| 2026-05-04 18:07 | 63.81253 | 25.40375 | 19537 ft | 217 kts | 191° |
| 2026-05-04 18:08 | 63.79746 | 25.40291 | 19537 ft | 216 kts | 191° |
| 2026-05-04 18:08 | 63.78243 | 25.40213 | 19539 ft | 216 kts | 191° |
| 2026-05-04 18:08 | 63.76741 | 25.40139 | 19540 ft | 216 kts | 191° |
| 2026-05-04 18:08 | 63.75252 | 25.40062 | 19547 ft | 216 kts | 191° |
| 2026-05-04 18:09 | 63.72232 | 25.39913 | 19543 ft | 216 kts | 191° |
| 2026-05-04 18:09 | 63.69223 | 25.39750 | 19546 ft | 216 kts | 191° |
| 2026-05-04 18:10 | 63.67740 | 25.39677 | 19535 ft | 215 kts | 191° |
| 2026-05-04 18:10 | 63.66244 | 25.39603 | 19540 ft | 215 kts | 191° |
| 2026-05-04 18:10 | 63.64748 | 25.39523 | 19545 ft | 214 kts | 191° |
| 2026-05-04 18:10 | 63.63252 | 25.39441 | 19544 ft | 215 kts | 191° |
| 2026-05-04 18:11 | 63.61760 | 25.39361 | 19552 ft | 215 kts | 191° |
| 2026-05-04 18:11 | 63.60268 | 25.39285 | 19551 ft | 215 kts | 191° |
| 2026-05-04 18:11 | 63.58773 | 25.39209 | 19549 ft | 214 kts | 191° |
| 2026-05-04 18:11 | 63.57281 | 25.39140 | 19551 ft | 214 kts | 191° |
| 2026-05-04 18:12 | 63.55791 | 25.39059 | 19552 ft | 214 kts | 191° |
| 2026-05-04 18:12 | 63.54299 | 25.38977 | 19490 ft | 214 kts | 191° |
| 2026-05-04 18:12 | 63.52816 | 25.38901 | 19520 ft | 213 kts | 191° |
| 2026-05-04 18:12 | 63.51333 | 25.38818 | 19529 ft | 213 kts | 191° |
| 2026-05-04 18:13 | 63.49848 | 25.38736 | 19542 ft | 214 kts | 191° |
| 2026-05-04 18:13 | 63.48360 | 25.38661 | 19551 ft | 214 kts | 191° |
| 2026-05-04 18:13 | 63.45382 | 25.38505 | 19548 ft | 215 kts | 191° |
| 2026-05-04 18:14 | 63.43884 | 25.38431 | 19548 ft | 215 kts | 191° |
| 2026-05-04 18:14 | 63.42382 | 25.38352 | 19546 ft | 216 kts | 191° |
| 2026-05-04 18:14 | 63.40880 | 25.38276 | 19545 ft | 216 kts | 191° |
| 2026-05-04 18:15 | 63.37899 | 25.38123 | 19547 ft | 215 kts | 191° |
| 2026-05-04 18:15 | 63.34906 | 25.37984 | 19539 ft | 215 kts | 191° |
| 2026-05-04 18:15 | 63.33412 | 25.37906 | 19547 ft | 215 kts | 192° |
| 2026-05-04 18:16 | 63.31917 | 25.37821 | 19553 ft | 215 kts | 192° |
| 2026-05-04 18:16 | 63.30421 | 25.37744 | 19553 ft | 215 kts | 191° |
| 2026-05-04 18:16 | 63.28922 | 25.37666 | 19555 ft | 215 kts | 191° |
| 2026-05-04 18:17 | 63.25919 | 25.37510 | 19553 ft | 216 kts | 191° |
| 2026-05-04 18:17 | 63.24416 | 25.37431 | 19547 ft | 216 kts | 191° |
| 2026-05-04 18:17 | 63.21410 | 25.37281 | 19555 ft | 216 kts | 191° |
| 2026-05-04 18:18 | 63.19905 | 25.37204 | 19552 ft | 216 kts | 191° |
| 2026-05-04 18:18 | 63.18399 | 25.37130 | 19555 ft | 216 kts | 191° |
| 2026-05-04 18:18 | 63.16913 | 25.37053 | 19552 ft | 216 kts | 191° |
| 2026-05-04 18:18 | 63.15409 | 25.36974 | 19551 ft | 216 kts | 191° |
| 2026-05-04 18:19 | 63.12403 | 25.36821 | 19556 ft | 216 kts | 191° |
| 2026-05-04 18:19 | 63.10901 | 25.36744 | 19557 ft | 216 kts | 191° |
| 2026-05-04 18:19 | 63.09398 | 25.36674 | 19557 ft | 216 kts | 191° |
| 2026-05-04 18:20 | 63.07896 | 25.36598 | 19566 ft | 216 kts | 191° |
| 2026-05-04 18:20 | 63.06392 | 25.36520 | 19566 ft | 216 kts | 191° |
| 2026-05-04 18:20 | 63.04887 | 25.36445 | 19565 ft | 216 kts | 191° |
| 2026-05-04 18:20 | 63.03381 | 25.36372 | 19565 ft | 216 kts | 191° |
| 2026-05-04 18:21 | 63.01876 | 25.36295 | 19533 ft | 216 kts | 192° |
| 2026-05-04 18:21 | 63.00391 | 25.36224 | 19548 ft | 216 kts | 192° |
| 2026-05-04 18:21 | 62.98890 | 25.36148 | 19557 ft | 216 kts | 192° |
| 2026-05-04 18:21 | 62.97387 | 25.36069 | 19561 ft | 216 kts | 192° |
| 2026-05-04 18:22 | 62.95885 | 25.35994 | 19560 ft | 216 kts | 192° |
| 2026-05-04 18:22 | 62.94377 | 25.35916 | 19567 ft | 216 kts | 192° |
| 2026-05-04 18:22 | 62.92871 | 25.35844 | 19565 ft | 216 kts | 192° |
| 2026-05-04 18:22 | 62.91365 | 25.35769 | 19570 ft | 216 kts | 192° |
| 2026-05-04 18:23 | 62.89858 | 25.35691 | 19568 ft | 217 kts | 192° |
| 2026-05-04 18:23 | 62.88346 | 25.35618 | 19562 ft | 217 kts | 192° |
| 2026-05-04 18:23 | 62.86835 | 25.35542 | 19567 ft | 217 kts | 192° |
| 2026-05-04 18:23 | 62.85323 | 25.35464 | 19565 ft | 218 kts | 192° |
| 2026-05-04 18:24 | 62.83808 | 25.35390 | 19567 ft | 218 kts | 192° |
| 2026-05-04 18:24 | 62.82294 | 25.35313 | 19564 ft | 217 kts | 192° |
| 2026-05-04 18:24 | 62.80779 | 25.35243 | 19570 ft | 217 kts | 192° |
| 2026-05-04 18:24 | 62.79291 | 25.35164 | 19548 ft | 217 kts | 191° |
| 2026-05-04 18:25 | 62.77783 | 25.35083 | 19565 ft | 217 kts | 192° |
| 2026-05-04 18:25 | 62.76266 | 25.35004 | 19570 ft | 218 kts | 191° |
| 2026-05-04 18:25 | 62.74749 | 25.34925 | 19571 ft | 219 kts | 191° |
| 2026-05-04 18:25 | 62.73222 | 25.34846 | 19572 ft | 219 kts | 191° |
| 2026-05-04 18:26 | 62.71698 | 25.34773 | 19574 ft | 219 kts | 191° |
| 2026-05-04 18:26 | 62.70171 | 25.34694 | 19574 ft | 220 kts | 191° |
| 2026-05-04 18:26 | 62.68643 | 25.34623 | 19575 ft | 220 kts | 191° |
| 2026-05-04 18:26 | 62.67110 | 25.34547 | 19567 ft | 220 kts | 192° |
| 2026-05-04 18:27 | 62.65581 | 25.34469 | 19569 ft | 220 kts | 192° |
| 2026-05-04 18:27 | 62.64047 | 25.34388 | 19573 ft | 220 kts | 192° |
| 2026-05-04 18:27 | 62.62512 | 25.34315 | 19574 ft | 220 kts | 191° |
| 2026-05-04 18:27 | 62.60979 | 25.34238 | 19574 ft | 220 kts | 191° |
| 2026-05-04 18:28 | 62.59446 | 25.34162 | 19586 ft | 220 kts | 191° |
| 2026-05-04 18:28 | 62.57913 | 25.34083 | 19584 ft | 221 kts | 191° |
| 2026-05-04 18:28 | 62.56376 | 25.34007 | 19566 ft | 221 kts | 191° |
| 2026-05-04 18:28 | 62.54838 | 25.33931 | 19570 ft | 221 kts | 191° |
| 2026-05-04 18:29 | 62.53317 | 25.33860 | 19565 ft | 221 kts | 191° |
| 2026-05-04 18:29 | 62.51775 | 25.33786 | 19567 ft | 222 kts | 191° |
| 2026-05-04 18:29 | 62.50229 | 25.33709 | 19560 ft | 222 kts | 191° |
| 2026-05-04 18:29 | 62.48689 | 25.33634 | 19563 ft | 222 kts | 191° |
| 2026-05-04 18:30 | 62.45603 | 25.33486 | 19567 ft | 222 kts | 191° |
| 2026-05-04 18:30 | 62.44055 | 25.33412 | 19553 ft | 222 kts | 191° |
| 2026-05-04 18:30 | 62.42508 | 25.33336 | 19564 ft | 222 kts | 191° |
| 2026-05-04 18:31 | 62.40964 | 25.33260 | 19563 ft | 222 kts | 191° |
| 2026-05-04 18:31 | 62.39414 | 25.33186 | 19560 ft | 222 kts | 191° |
| 2026-05-04 18:31 | 62.37867 | 25.33109 | 19569 ft | 223 kts | 191° |
| 2026-05-04 18:31 | 62.36315 | 25.33038 | 19560 ft | 223 kts | 191° |
| 2026-05-04 18:32 | 62.34766 | 25.32963 | 19562 ft | 223 kts | 191° |
| 2026-05-04 18:32 | 62.33218 | 25.32887 | 19557 ft | 222 kts | 191° |
| 2026-05-04 18:32 | 62.31670 | 25.32816 | 19566 ft | 223 kts | 191° |
| 2026-05-04 18:32 | 62.30121 | 25.32742 | 19562 ft | 223 kts | 191° |
| 2026-05-04 18:33 | 62.28572 | 25.32667 | 19568 ft | 223 kts | 191° |
| 2026-05-04 18:33 | 62.27041 | 25.32597 | 19569 ft | 222 kts | 191° |
| 2026-05-04 18:33 | 62.25499 | 25.32522 | 19576 ft | 222 kts | 192° |
| 2026-05-04 18:33 | 62.23953 | 25.32448 | 19573 ft | 223 kts | 191° |
| 2026-05-04 18:34 | 62.22404 | 25.32376 | 19570 ft | 222 kts | 191° |
| 2026-05-04 18:34 | 62.20857 | 25.32301 | 19582 ft | 222 kts | 191° |
| 2026-05-04 18:34 | 62.19306 | 25.32229 | 19574 ft | 223 kts | 191° |
| 2026-05-04 18:34 | 62.17756 | 25.32155 | 19578 ft | 223 kts | 191° |
| 2026-05-04 18:35 | 62.16731 | 25.32105 | 19579 ft | 223 kts | 192° |
| 2026-05-04 18:35 | 62.15181 | 25.32034 | 19584 ft | 223 kts | 191° |
| 2026-05-04 18:35 | 62.13124 | 25.31935 | 19586 ft | 223 kts | 192° |
| 2026-05-04 18:35 | 62.11572 | 25.31862 | 19588 ft | 223 kts | 191° |
| 2026-05-04 18:36 | 62.10529 | 25.31813 | 19593 ft | 223 kts | 191° |
| 2026-05-04 18:36 | 62.08978 | 25.31740 | 19596 ft | 222 kts | 192° |
| 2026-05-04 18:36 | 62.07430 | 25.31669 | 19594 ft | 222 kts | 191° |
| 2026-05-04 18:36 | 62.05885 | 25.31590 | 19573 ft | 222 kts | 191° |
| 2026-05-04 18:37 | 62.04340 | 25.31514 | 19582 ft | 222 kts | 191° |
| 2026-05-04 18:37 | 62.02796 | 25.31435 | 19574 ft | 222 kts | 191° |
| 2026-05-04 18:37 | 62.01274 | 25.31365 | 19590 ft | 222 kts | 191° |
| 2026-05-04 18:37 | 61.99726 | 25.31289 | 19593 ft | 223 kts | 191° |
| 2026-05-04 18:38 | 61.98231 | 25.30929 | 19603 ft | 207 kts | 210° |
| 2026-05-04 18:38 | 61.97065 | 25.29257 | 19592 ft | 202 kts | 224° |
| 2026-05-04 18:38 | 61.96038 | 25.27142 | 19292 ft | 209 kts | 230° |
| 2026-05-04 18:38 | 61.95064 | 25.24789 | 18998 ft | 215 kts | 232° |
| 2026-05-04 18:39 | 61.94087 | 25.22340 | 18706 ft | 219 kts | 232° |
| 2026-05-04 18:39 | 61.93087 | 25.19856 | 18415 ft | 223 kts | 231° |
| 2026-05-04 18:39 | 61.92051 | 25.17378 | 18131 ft | 226 kts | 230° |
| 2026-05-04 18:39 | 61.90994 | 25.14889 | 17830 ft | 228 kts | 230° |
| 2026-05-04 18:40 | 61.89927 | 25.12387 | 17498 ft | 229 kts | 230° |
| 2026-05-04 18:40 | 61.88852 | 25.09873 | 17217 ft | 230 kts | 230° |
| 2026-05-04 18:40 | 61.87777 | 25.07351 | 16893 ft | 231 kts | 230° |
| 2026-05-04 18:40 | 61.86711 | 25.04856 | 16571 ft | 232 kts | 230° |
| 2026-05-04 18:41 | 61.85626 | 25.02320 | 16258 ft | 232 kts | 230° |
| 2026-05-04 18:41 | 61.84540 | 24.99779 | 15942 ft | 233 kts | 230° |
| 2026-05-04 18:41 | 61.83450 | 24.97235 | 15619 ft | 234 kts | 230° |
| 2026-05-04 18:41 | 61.82357 | 24.94691 | 15314 ft | 234 kts | 230° |
| 2026-05-04 18:42 | 61.81260 | 24.92137 | 15020 ft | 235 kts | 230° |
| 2026-05-04 18:42 | 61.80158 | 24.89572 | 14717 ft | 235 kts | 230° |
| 2026-05-04 18:42 | 61.79053 | 24.87010 | 14409 ft | 236 kts | 230° |
| 2026-05-04 18:42 | 61.77946 | 24.84447 | 14099 ft | 236 kts | 230° |
| 2026-05-04 18:43 | 61.76839 | 24.81875 | 13803 ft | 237 kts | 230° |
| 2026-05-04 18:43 | 61.75723 | 24.79300 | 13509 ft | 237 kts | 230° |
| 2026-05-04 18:43 | 61.74609 | 24.76724 | 13195 ft | 238 kts | 230° |
| 2026-05-04 18:43 | 61.73491 | 24.74150 | 12876 ft | 238 kts | 230° |
| 2026-05-04 18:44 | 61.72388 | 24.71604 | 12548 ft | 238 kts | 230° |
| 2026-05-04 18:44 | 61.71630 | 24.69865 | 12330 ft | 238 kts | 230° |
| 2026-05-04 18:44 | 61.70145 | 24.66455 | 11914 ft | 239 kts | 231° |
| 2026-05-04 18:44 | 61.69018 | 24.63868 | 11596 ft | 239 kts | 231° |
| 2026-05-04 18:45 | 61.67890 | 24.61279 | 11289 ft | 240 kts | 231° |
| 2026-05-04 18:45 | 61.66759 | 24.58691 | 10976 ft | 240 kts | 231° |
| 2026-05-04 18:45 | 61.65624 | 24.56090 | 10669 ft | 241 kts | 231° |
| 2026-05-04 18:45 | 61.64492 | 24.53499 | 10365 ft | 241 kts | 231° |
| 2026-05-04 18:46 | 61.63355 | 24.50896 | 10061 ft | 241 kts | 231° |
| 2026-05-04 18:46 | 61.62287 | 24.48232 | 9765 ft | 236 kts | 240° |
| 2026-05-04 18:46 | 61.61517 | 24.45198 | 9456 ft | 236 kts | 247° |
| 2026-05-04 18:46 | 61.60824 | 24.42068 | 9137 ft | 236 kts | 248° |
| 2026-05-04 18:47 | 61.60129 | 24.38943 | 8820 ft | 237 kts | 247° |
| 2026-05-04 18:47 | 61.59408 | 24.35878 | 8506 ft | 237 kts | 246° |
| 2026-05-04 18:47 | 61.58653 | 24.32802 | 8182 ft | 237 kts | 245° |
| 2026-05-04 18:47 | 61.57898 | 24.29721 | 7804 ft | 238 kts | 245° |
| 2026-05-04 18:48 | 61.57142 | 24.26632 | 7366 ft | 237 kts | 245° |
| 2026-05-04 18:48 | 61.56388 | 24.23556 | 6944 ft | 237 kts | 245° |
| 2026-05-04 18:48 | 61.55637 | 24.20492 | 6527 ft | 236 kts | 245° |
| 2026-05-04 18:48 | 61.54888 | 24.17433 | 6104 ft | 235 kts | 245° |
| 2026-05-04 18:49 | 61.54140 | 24.14389 | 5663 ft | 235 kts | 245° |
| 2026-05-04 18:49 | 61.53393 | 24.11330 | 5213 ft | 235 kts | 245° |
| 2026-05-04 18:49 | 61.52637 | 24.08296 | 4783 ft | 234 kts | 244° |
| 2026-05-04 18:49 | 61.51860 | 24.05318 | 4406 ft | 231 kts | 244° |
| 2026-05-04 18:50 | 61.51085 | 24.02401 | 4028 ft | 227 kts | 243° |
| 2026-05-04 18:50 | 61.50340 | 23.99576 | 3910 ft | 215 kts | 245° |
| 2026-05-04 18:50 | 61.49711 | 23.96883 | 3877 ft | 203 kts | 247° |
| 2026-05-04 18:50 | 61.49142 | 23.94243 | 3733 ft | 199 kts | 249° |
| 2026-05-04 18:51 | 61.48571 | 23.91587 | 3461 ft | 201 kts | 246° |
| 2026-05-04 18:51 | 61.47949 | 23.88969 | 3190 ft | 201 kts | 246° |
| 2026-05-04 18:51 | 61.47344 | 23.86332 | 2908 ft | 201 kts | 246° |
| 2026-05-04 18:51 | 61.46751 | 23.83694 | 2629 ft | 200 kts | 246° |
| 2026-05-04 18:52 | 61.46151 | 23.81076 | 2370 ft | 199 kts | 245° |
| 2026-05-04 18:52 | 61.45548 | 23.78474 | 2097 ft | 199 kts | 245° |
| 2026-05-04 18:52 | 61.44954 | 23.75865 | 1833 ft | 192 kts | 245° |
| 2026-05-04 18:52 | 61.44431 | 23.73506 | 1542 ft | 168 kts | 245° |
| 2026-05-04 18:53 | 61.43960 | 23.71478 | 1394 ft | 145 kts | 244° |
| 2026-05-04 18:53 | 61.43517 | 23.69638 | 1143 ft | 133 kts | 243° |
| 2026-05-04 18:53 | 61.43153 | 23.68104 | 951 ft | 109 kts | 245° |
| 2026-05-04 18:53 | 61.42863 | 23.66748 | 831 ft | 100 kts | 244° |
| 2026-05-04 18:54 | 61.42556 | 23.65468 | 692 ft | 97 kts | 245° |
| 2026-05-04 18:54 | 61.42269 | 23.64187 | 573 ft | 96 kts | 245° |
| 2026-05-04 18:54 | 61.41989 | 23.62942 | 422 ft | 91 kts | 245° |
| 2026-05-04 18:54 | 61.41731 | 23.61823 | 376 ft | 74 kts | 244° |
| 2026-05-04 18:55 | 61.41564 | 23.61087 | 382 ft | 24 kts | 244° |
| 2026-05-04 18:55 | 61.41478 | 23.60714 | 386 ft | 16 kts | 244° |
| 2026-05-04 18:55 | 61.41404 | 23.60381 | 392 ft | 34 kts | 244° |
| 2026-05-04 18:56 | 61.41304 | 23.59962 | 388 ft | 30 kts | 248° |
| 2026-05-04 18:56 | 61.41226 | 23.59614 | 387 ft | 22 kts | 244° |
| 2026-05-04 18:56 | 61.41172 | 23.59381 | 389 ft | 14 kts | 244° |
| 2026-05-04 18:56 | 61.41146 | 23.59270 | 391 ft | 4 kts | 244° |
| 2026-05-04 18:57 | 61.41055 | 23.59223 | 392 ft | 17 kts | 160° |
| 2026-05-04 18:57 | 61.40973 | 23.59371 | 388 ft | 16 kts | 99° |
| 2026-05-04 18:57 | 61.40976 | 23.59606 | 390 ft | 16 kts | 93° |
| 2026-05-04 18:57 | 61.40953 | 23.59851 | 386 ft | 17 kts | 108° |
| 2026-05-04 18:58 | 61.40898 | 23.60078 | 383 ft | 18 kts | 127° |
| 2026-05-04 18:58 | 61.40806 | 23.60281 | 374 ft | 20 kts | 139° |
| 2026-05-04 18:58 | 61.40723 | 23.60478 | 372 ft | 18 kts | 117° |
| 2026-05-04 18:58 | 61.40704 | 23.60734 | 371 ft | 18 kts | 80° |